Time;durP1;ratioP1;P1;durP2;ratioP2;P2;SDS_P1;SDS_P2;PMS_P1;PMS_P2;Temp;Humidity;BMP_temperature;BMP_pressure;BME280_temperature;BME280_humidity;BME280_pressure;Samples;Min_cycle;Max_cycle;Signal;HPM_P1;HPM_P2
2022/04/19 00:01:54;;;;;;;11.77;7.32;;;;;;;8.01;65.43;101388.88;5065062;28;20067;-78
2022/04/19 00:04:20;;;;;;;12.43;7.82;;;;;;;7.97;66.00;101391.81;5068530;28;20043;-69
2022/04/19 00:06:46;;;;;;;11.57;7.88;;;;;;;7.89;66.05;101392.25;5057841;28;20117;-68
2022/04/19 00:09:11;;;;;;;13.32;8.00;;;;;;;7.83;66.49;101382.63;5070670;28;20072;-68
2022/04/19 00:11:37;;;;;;;10.45;7.53;;;;;;;7.78;67.37;101381.09;5057758;28;20122;-77
2022/04/19 00:14:02;;;;;;;13.32;8.35;;;;;;;7.72;67.75;101387.69;5055792;28;20029;-74
2022/04/19 00:16:28;;;;;;;14.43;9.35;;;;;;;7.66;67.30;101378.06;5059492;28;20098;-77
2022/04/19 00:18:54;;;;;;;11.80;8.75;;;;;;;7.64;67.60;101379.09;5069790;28;20036;-76
2022/04/19 00:21:19;;;;;;;10.65;7.97;;;;;;;7.61;67.59;101379.28;5066813;28;20480;-74
2022/04/19 00:23:46;;;;;;;10.73;8.15;;;;;;;7.57;67.57;101381.25;5069366;28;20036;-77
2022/04/19 00:26:12;;;;;;;10.68;7.97;;;;;;;7.53;67.48;101376.94;5067746;28;20060;-77
2022/04/19 00:28:37;;;;;;;10.55;8.05;;;;;;;7.51;68.12;101381.56;5057855;28;20040;-74
2022/04/19 00:31:04;;;;;;;11.65;8.45;;;;;;;7.48;67.76;101379.00;5074758;28;20439;-68
2022/04/19 00:33:30;;;;;;;12.32;7.85;;;;;;;7.43;68.69;101366.66;5069360;28;20044;-76
2022/04/19 00:35:55;;;;;;;13.93;9.50;;;;;;;7.39;68.20;101374.94;5050757;28;20511;-76
2022/04/19 00:38:21;;;;;;;17.25;10.18;;;;;;;7.35;67.03;101375.16;5068132;28;20028;-74
2022/04/19 00:40:47;;;;;;;16.23;10.43;;;;;;;7.31;68.37;101376.28;5060033;28;20480;-70
2022/04/19 00:43:12;;;;;;;16.15;10.00;;;;;;;7.18;69.38;101375.13;5061232;28;20116;-69
2022/04/19 00:45:38;;;;;;;16.75;11.15;;;;;;;7.14;67.95;101374.44;5056831;28;20125;-75
2022/04/19 00:48:04;;;;;;;17.48;11.43;;;;;;;7.11;68.39;101378.16;5068366;28;20028;-69
2022/04/19 00:50:32;;;;;;;16.38;10.40;;;;;;;7.10;68.69;101379.13;5051687;28;20501;-75
2022/04/19 00:52:58;;;;;;;14.63;10.57;;;;;;;7.07;68.71;101375.69;5056102;28;20067;-75
2022/04/19 00:55:25;;;;;;;16.90;9.77;;;;;;;7.04;68.30;101371.31;5047304;28;20048;-70
2022/04/19 00:57:51;;;;;;;14.77;10.35;;;;;;;7.02;68.71;101372.31;5058034;28;20041;-69
2022/04/19 01:00:20;;;;;;;21.70;11.52;;;;;;;6.96;68.19;101372.63;5055471;28;20035;-69
2022/04/19 01:03:01;;;;;;;;;;;;;;;7.02;65.24;101373.19;5071936;28;20405;-77
2022/04/19 01:05:27;;;;;;;19.05;10.95;;;;;;;6.94;68.67;101375.38;5071564;28;19919;-74
2022/04/19 01:07:53;;;;;;;14.40;9.60;;;;;;;6.94;69.11;101371.81;5071835;28;20113;-74
2022/04/19 01:10:23;;;;;;;13.40;10.18;;;;;;;6.90;68.97;101373.78;5067636;28;20373;-70
2022/04/19 01:15:33;;;;;;;14.20;9.60;;;;;;;6.82;70.64;101373.31;5058341;28;20081;-75
2022/04/19 01:18:02;;;;;;;16.45;12.15;;;;;;;6.73;68.73;101371.03;5056135;28;20407;-75
2022/04/19 01:20:29;;;;;;;16.88;11.52;;;;;;;6.69;70.98;101370.31;5071400;28;20133;-70
2022/04/19 01:22:56;;;;;;;18.90;11.18;;;;;;;6.59;73.03;101360.88;5071238;28;20111;-74
2022/04/19 01:25:26;;;;;;;17.00;11.27;;;;;;;6.49;72.43;101356.88;5053858;28;20051;-70
2022/04/19 01:27:52;;;;;;;21.52;11.80;;;;;;;6.44;72.11;101365.19;5053374;28;20025;-77
2022/04/19 01:30:18;;;;;;;18.13;12.35;;;;;;;6.38;72.43;101362.75;5058135;28;20028;-74
2022/04/19 01:32:44;;;;;;;18.75;11.50;;;;;;;6.33;71.75;101362.09;5052299;28;20052;-68
2022/04/19 01:35:12;;;;;;;20.83;12.43;;;;;;;6.30;72.01;101354.16;5046102;28;20114;-68
2022/04/19 01:37:45;;;;;;;14.40;10.10;;;;;;;6.26;73.27;101352.53;5065685;28;20033;-70
2022/04/19 01:40:17;;;;;;;14.45;9.70;;;;;;;6.22;71.86;101356.31;5058883;28;20498;-68
2022/04/19 01:42:45;;;;;;;17.38;11.02;;;;;;;6.24;73.07;101352.59;5077721;28;20322;-69
2022/04/19 01:45:38;;;;;;;13.77;9.65;;;;;;;6.28;70.79;101356.91;5068432;28;20086;-77
2022/04/19 01:48:08;;;;;;;12.60;9.73;;;;;;;6.24;72.56;101349.88;5069792;28;20565;-77
2022/04/19 01:50:37;;;;;;;16.65;10.77;;;;;;;6.28;70.71;101356.91;5054846;28;20032;-68
2022/04/19 01:53:03;;;;;;;14.60;10.23;;;;;;;6.32;71.14;101353.13;5070174;28;20510;-68
2022/04/19 01:55:30;;;;;;;15.20;10.30;;;;;;;6.34;71.41;101353.03;5066207;28;20400;-77
2022/04/19 01:58:00;;;;;;;15.40;9.80;;;;;;;6.33;70.76;101349.47;5062076;28;20094;-68
2022/04/19 02:00:39;;;;;;;18.73;11.07;;;;;;;6.36;71.36;101351.16;5067652;28;20521;-70
2022/04/19 02:03:06;;;;;;;16.83;11.73;;;;;;;6.34;70.50;101347.63;5070813;28;20438;-74
2022/04/19 02:05:31;;;;;;;20.23;11.95;;;;;;;6.36;69.81;101345.75;5053839;28;20032;-68
2022/04/19 02:08:01;;;;;;;17.63;11.88;;;;;;;6.34;70.31;101340.44;5070409;28;20103;-77
2022/04/19 02:10:28;;;;;;;17.17;12.07;;;;;;;6.35;69.88;101350.28;5067909;28;20565;-70
2022/04/19 02:12:54;;;;;;;17.80;11.38;;;;;;;6.33;70.32;101349.47;5066000;28;20029;-70
2022/04/19 02:15:34;;;;;;;16.88;12.00;;;;;;;6.34;70.32;101351.25;5065096;28;20044;-68
2022/04/19 02:18:22;;;;;;;16.63;11.85;;;;;;;6.31;70.35;101356.78;5079314;28;20059;-70
2022/04/19 02:20:47;;;;;;;18.98;11.13;;;;;;;6.29;71.17;101349.69;5069934;28;20020;-76
2022/04/19 02:23:13;;;;;;;17.13;11.00;;;;;;;6.27;70.77;101346.19;5071679;28;20044;-70
2022/04/19 02:25:39;;;;;;;18.58;10.50;;;;;;;6.24;70.66;101346.31;5061884;28;20029;-74
2022/04/19 02:28:10;;;;;;;19.92;11.90;;;;;;;6.20;72.07;101342.91;5064733;28;20029;-70
2022/04/19 02:30:37;;;;;;;21.85;11.85;;;;;;;6.16;72.50;101343.13;5033601;28;20029;-74
2022/04/19 02:33:08;;;;;;;20.15;11.60;;;;;;;6.08;73.38;101347.03;5070025;28;20048;-70
2022/04/19 02:35:38;;;;;;;18.02;10.88;;;;;;;6.00;73.95;101341.09;5071134;28;20032;-69
2022/04/19 02:38:04;;;;;;;17.38;11.50;;;;;;;5.98;73.39;101343.00;5058514;28;20025;-74
2022/04/19 02:40:35;;;;;;;17.25;10.82;;;;;;;5.93;73.52;101336.94;5064933;28;20033;-70
2022/04/19 02:43:02;;;;;;;17.10;10.77;;;;;;;5.91;73.75;101336.06;5062668;28;20033;-74
2022/04/19 02:45:28;;;;;;;14.00;10.10;;;;;;;5.87;73.31;101340.75;5066722;28;20032;-71
2022/04/19 02:48:05;;;;;;;21.40;12.32;;;;;;;5.88;72.14;101336.22;5053721;28;20041;-78
2022/04/19 02:50:44;;;;;;;19.30;11.52;;;;;;;5.83;72.27;101328.34;5038784;28;20067;-77
2022/04/19 02:53:11;;;;;;;17.52;12.10;;;;;;;5.83;72.59;101339.13;5065944;28;20112;-70
2022/04/19 02:55:38;;;;;;;19.45;12.50;;;;;;;5.82;72.21;101334.66;5062032;28;20049;-77
2022/04/19 02:58:04;;;;;;;20.05;12.18;;;;;;;5.79;73.91;101328.53;5057887;28;20048;-78
2022/04/19 03:00:30;;;;;;;18.88;11.32;;;;;;;5.74;73.24;101322.47;5056486;28;20314;-77
2022/04/19 03:02:55;;;;;;;13.82;11.48;;;;;;;5.75;73.73;101329.63;5051825;28;20466;-77
2022/04/19 03:05:22;;;;;;;21.50;12.23;;;;;;;5.71;73.51;101328.88;5065402;28;20048;-77
2022/04/19 03:07:48;;;;;;;19.33;12.43;;;;;;;5.70;73.30;101326.25;5069047;28;20071;-70
2022/04/19 03:10:15;;;;;;;19.95;11.50;;;;;;;5.66;73.53;101328.22;5065033;28;20035;-77
2022/04/19 03:12:43;;;;;;;17.65;11.70;;;;;;;5.64;73.67;101324.69;5061561;28;20047;-68
2022/04/19 03:15:15;;;;;;;16.83;11.75;;;;;;;5.62;74.50;101330.16;5064587;28;20096;-73
2022/04/19 03:17:41;;;;;;;18.23;12.75;;;;;;;5.59;74.69;101324.88;5071011;28;20020;-75
2022/04/19 03:20:08;;;;;;;15.98;11.20;;;;;;;5.56;74.28;101316.06;5062775;28;20033;-69
2022/04/19 03:28:05;;;;;;;19.83;13.48;;;;;;;5.47;74.02;101328.13;5064555;28;20171;-68
2022/04/19 03:30:31;;;;;;;18.38;12.45;;;;;;;5.46;73.91;101328.22;5054003;28;20115;-78
2022/04/19 03:32:56;;;;;;;15.70;11.43;;;;;;;5.41;74.61;101317.63;5065370;28;20032;-76
2022/04/19 03:35:22;;;;;;;17.02;11.32;;;;;;;5.40;74.64;101325.75;5060870;28;20028;-73
2022/04/19 03:37:47;;;;;;;18.60;11.48;;;;;;;5.42;73.85;101326.59;5058972;28;20044;-69
2022/04/19 03:40:14;;;;;;;17.67;11.63;;;;;;;5.43;73.58;101336.44;5065235;28;20024;-75
2022/04/19 03:42:42;;;;;;;17.20;12.27;;;;;;;5.41;74.72;101332.91;5058785;28;20032;-78
2022/04/19 03:45:10;;;;;;;16.58;10.73;;;;;;;5.42;75.00;101329.28;5067402;28;20471;-74
2022/04/19 03:47:36;;;;;;;18.92;12.05;;;;;;;5.40;75.04;101323.06;5060869;28;20036;-70
2022/04/19 03:50:01;;;;;;;16.10;10.98;;;;;;;5.37;75.00;101324.97;5068306;28;20031;-74
2022/04/19 03:52:27;;;;;;;20.25;12.18;;;;;;;5.35;75.97;101334.06;5069983;28;20387;-77
2022/04/19 03:54:52;;;;;;;16.85;10.93;;;;;;;5.33;75.77;101319.78;5064512;28;20119;-74
2022/04/19 03:57:19;;;;;;;18.20;11.20;;;;;;;5.29;75.75;101320.84;5056437;28;20044;-77
2022/04/19 03:59:45;;;;;;;17.23;11.10;;;;;;;5.27;75.09;101330.81;5050738;28;20055;-78
2022/04/19 04:02:12;;;;;;;16.83;11.57;;;;;;;5.22;76.50;101324.72;5068475;28;20024;-75
2022/04/19 04:04:37;;;;;;;17.52;11.38;;;;;;;5.19;75.66;101319.47;5067494;28;20078;-69
2022/04/19 04:07:05;;;;;;;23.92;11.35;;;;;;;5.17;76.23;101327.63;5050293;28;20452;-75
2022/04/19 04:09:35;;;;;;;18.00;11.85;;;;;;;5.14;76.44;101324.19;5068538;28;20120;-68
2022/04/19 04:12:09;;;;;;;17.02;11.13;;;;;;;5.12;75.91;101333.22;5050547;28;20395;-70
2022/04/19 04:14:38;;;;;;;16.80;10.98;;;;;;;5.08;75.42;101330.69;5062084;28;20472;-69
2022/04/19 04:17:03;;;;;;;14.73;10.55;;;;;;;5.08;75.36;101326.22;5053497;28;20395;-69
2022/04/19 04:19:29;;;;;;;18.55;11.88;;;;;;;5.06;74.79;101330.78;5052171;28;20123;-71
2022/04/19 04:21:55;;;;;;;17.48;11.13;;;;;;;5.00;74.63;101320.25;5047887;28;20028;-68
2022/04/19 04:24:20;;;;;;;16.05;9.80;;;;;;;5.04;74.63;101335.38;5068360;28;20056;-76
2022/04/19 04:26:46;;;;;;;16.05;10.80;;;;;;;5.04;74.25;101331.81;5064032;28;20055;-77
2022/04/19 04:29:14;;;;;;;18.23;10.75;;;;;;;5.02;74.19;101333.66;5047499;28;20032;-69
2022/04/19 04:31:40;;;;;;;15.45;10.38;;;;;;;5.01;74.37;101326.53;5069015;28;20398;-69
2022/04/19 04:34:11;;;;;;;17.50;12.13;;;;;;;5.02;75.62;101336.34;5074611;28;20502;-74
2022/04/19 04:36:37;;;;;;;16.33;10.55;;;;;;;5.00;75.27;101333.75;5072466;28;20028;-72
2022/04/19 04:39:03;;;;;;;16.13;10.77;;;;;;;5.00;75.86;101340.97;5067486;28;20095;-70
2022/04/19 04:41:42;;;;;;;16.80;11.63;;;;;;;4.96;76.53;101336.63;5078102;28;20395;-71
2022/04/19 04:44:08;;;;;;;17.58;12.00;;;;;;;4.91;77.39;101341.34;5064848;28;20450;-71
2022/04/19 04:49:35;;;;;;;20.48;12.32;;;;;;;4.88;76.71;101341.44;5072677;28;20032;-69
2022/04/19 04:52:01;;;;;;;16.13;11.55;;;;;;;4.90;75.69;101340.47;5077088;28;20032;-74
2022/04/19 04:54:27;;;;;;;16.27;11.60;;;;;;;4.92;75.96;101340.38;5061309;28;20504;-78
2022/04/19 04:56:53;;;;;;;15.48;10.68;;;;;;;4.97;76.04;101346.47;5056887;28;20096;-71
2022/04/19 04:59:18;;;;;;;12.98;10.40;;;;;;;5.05;75.95;101344.34;5065253;28;20071;-70
2022/04/19 05:01:44;;;;;;;16.83;10.98;;;;;;;5.05;75.67;101337.13;5071866;28;20056;-69
2022/04/19 05:04:09;;;;;;;16.52;10.70;;;;;;;5.15;73.85;101342.13;5055878;28;20094;-68
2022/04/19 05:06:35;;;;;;;16.35;10.80;;;;;;;5.23;74.51;101342.69;5055366;28;20507;-68
2022/04/19 05:09:01;;;;;;;20.90;10.90;;;;;;;5.28;74.43;101346.06;5068500;28;20033;-73
2022/04/19 05:11:28;;;;;;;17.98;11.38;;;;;;;5.27;75.51;101338.88;5080111;28;20123;-71
2022/04/19 05:13:54;;;;;;;23.40;12.38;;;;;;;5.33;74.91;101350.31;5069493;28;20485;-71
2022/04/19 05:16:20;;;;;;;21.63;10.88;;;;;;;5.36;76.63;101343.91;5071336;28;20032;-69
2022/04/19 05:18:46;;;;;;;16.35;10.55;;;;;;;5.41;76.90;101346.41;5071476;28;20123;-76
2022/04/19 05:21:11;;;;;;;17.60;10.52;;;;;;;5.40;76.80;101348.22;5069133;28;20059;-76
2022/04/19 05:23:37;;;;;;;20.17;12.32;;;;;;;5.44;77.21;101351.66;5065161;28;20495;-74
2022/04/19 05:26:03;;;;;;;19.23;12.15;;;;;;;5.50;76.71;101355.00;5070256;28;20016;-71
2022/04/19 05:28:29;;;;;;;17.73;12.48;;;;;;;5.60;76.18;101352.78;5069136;28;20032;-68
2022/04/19 05:30:58;;;;;;;17.13;12.38;;;;;;;5.67;76.63;101356.06;5052352;28;20028;-76
2022/04/19 05:33:24;;;;;;;18.92;11.20;;;;;;;5.74;75.29;101354.88;5059625;28;20025;-73
2022/04/19 05:35:49;;;;;;;18.63;11.80;;;;;;;5.82;75.61;101358.97;5067329;28;20169;-74
2022/04/19 05:38:15;;;;;;;17.75;11.85;;;;;;;5.89;75.27;101356.88;5069444;28;20119;-71
2022/04/19 05:40:41;;;;;;;19.42;11.90;;;;;;;6.00;75.80;101351.03;5068908;28;20123;-73
2022/04/19 05:43:07;;;;;;;24.02;11.40;;;;;;;6.11;75.54;101364.94;5055268;28;20496;-75
2022/04/19 05:45:33;;;;;;;19.30;13.00;;;;;;;6.23;74.96;101356.25;5068824;28;20494;-73
2022/04/19 05:47:59;;;;;;;16.88;11.52;;;;;;;6.38;72.96;101350.13;5069478;28;20098;-70
2022/04/19 05:50:26;;;;;;;18.95;13.27;;;;;;;6.51;73.37;101355.84;5063214;28;20033;-70
2022/04/19 05:52:51;;;;;;;17.90;12.10;;;;;;;6.60;72.41;101355.41;5068937;28;20092;-71
2022/04/19 05:55:17;;;;;;;20.60;12.00;;;;;;;6.70;71.72;101355.81;5066388;28;20047;-73
2022/04/19 05:57:43;;;;;;;20.92;13.27;;;;;;;6.77;71.56;101359.13;5063998;28;20130;-75
2022/04/19 06:00:09;;;;;;;22.55;12.95;;;;;;;6.89;70.28;101361.22;5068283;28;20028;-68
2022/04/19 06:05:34;;;;;;;23.83;12.88;;;;;;;7.12;69.23;101366.38;5070591;28;20040;-68
2022/04/19 06:08:00;;;;;;;20.67;11.93;;;;;;;7.28;68.82;101365.63;5071705;28;20028;-77
2022/04/19 06:10:25;;;;;;;21.92;13.00;;;;;;;7.48;68.42;101370.91;5068510;28;20047;-69
2022/04/19 06:12:52;;;;;;;19.33;12.00;;;;;;;7.69;67.85;101366.19;5061841;28;20032;-71
2022/04/19 06:15:18;;;;;;;22.17;12.93;;;;;;;7.90;68.50;101366.91;5063814;28;20025;-70
2022/04/19 06:17:43;;;;;;;20.55;13.00;;;;;;;8.07;68.76;101369.59;5065604;28;20044;-73
2022/04/19 06:20:22;;;;;;;20.23;12.15;;;;;;;8.24;65.91;101378.63;5068667;28;20475;-73
2022/04/19 06:22:47;;;;;;;19.60;11.27;;;;;;;8.37;67.56;101382.47;5065182;28;20085;-75
2022/04/19 06:25:16;;;;;;;20.15;12.57;;;;;;;8.51;65.63;101381.72;5064232;28;20358;-70
2022/04/19 06:27:42;;;;;;;23.20;12.20;;;;;;;8.67;63.90;101374.47;5067265;28;20036;-69
2022/04/19 06:30:08;;;;;;;19.85;12.00;;;;;;;8.80;61.96;101378.25;5054144;28;20182;-73
2022/04/19 06:32:35;;;;;;;19.90;11.57;;;;;;;8.86;62.24;101377.00;5070024;28;20035;-69
2022/04/19 06:35:02;;;;;;;24.50;12.85;;;;;;;8.98;63.64;101370.03;5068765;28;20446;-73
2022/04/19 06:37:30;;;;;;;21.10;12.27;;;;;;;9.09;63.43;101367.56;5069847;28;20476;-70
2022/04/19 06:40:09;;;;;;;18.70;12.13;;;;;;;9.24;64.45;101373.97;5067289;28;20568;-71
2022/04/19 06:42:35;;;;;;;29.05;13.60;;;;;;;9.41;62.98;101371.09;5060788;28;20024;-73
2022/04/19 06:45:17;;;;;;;24.27;10.98;;;;;;;9.82;61.29;101374.06;5053341;28;20037;-68
2022/04/19 06:47:58;;;;;;;19.13;12.65;;;;;;;10.24;64.47;101377.84;5069128;28;20028;-73
2022/04/19 06:50:24;;;;;;;18.75;12.55;;;;;;;10.80;57.68;101372.47;5047435;28;20056;-71
2022/04/19 06:52:52;;;;;;;21.75;12.00;;;;;;;10.90;59.69;101377.22;5063797;28;20041;-76
2022/04/19 06:55:37;;;;;;;20.30;11.60;;;;;;;10.79;59.70;101371.63;5053492;28;20056;-70
2022/04/19 06:58:03;;;;;;;23.58;12.65;;;;;;;10.78;59.04;101379.88;5066416;28;20025;-69
2022/04/19 07:00:28;;;;;;;21.15;11.60;;;;;;;10.93;56.38;101385.19;5059179;28;20199;-74
2022/04/19 07:02:54;;;;;;;19.38;11.68;;;;;;;11.16;54.96;101377.38;5069364;28;20119;-67
2022/04/19 07:05:57;;;;;;;23.20;12.50;;;;;;;11.56;55.28;101385.56;5053906;28;20033;-75
2022/04/19 07:08:23;;;;;;;24.50;11.75;;;;;;;11.51;56.63;101377.72;5068837;28;20032;-67
2022/04/19 07:10:48;;;;;;;19.35;11.70;;;;;;;11.48;57.25;101381.53;5063688;28;20040;-69
2022/04/19 07:13:34;;;;;;;33.83;12.77;;;;;;;11.45;54.98;101379.00;5065653;28;20029;-72
2022/04/19 07:16:00;;;;;;;33.53;12.57;;;;;;;11.52;59.26;101378.56;5050874;28;20496;-68
2022/04/19 07:18:26;;;;;;;19.05;11.23;;;;;;;11.55;53.92;101384.69;5066893;28;20544;-68
2022/04/19 07:26:37;;;;;;;22.33;12.38;;;;;;;11.68;58.28;101384.75;5059263;28;20028;-68
2022/04/19 07:29:21;;;;;;;18.15;11.25;;;;;;;11.75;57.48;101392.41;5064623;28;20090;-72
2022/04/19 07:31:51;;;;;;;22.20;12.05;;;;;;;11.84;56.59;101390.91;5062043;28;20047;-69
2022/04/19 07:34:49;;;;;;;17.95;10.93;;;;;;;11.95;56.19;101390.19;5066601;28;20023;-72
2022/04/19 07:37:14;;;;;;;20.55;11.38;;;;;;;12.09;55.53;101391.94;5058758;28;20120;-69
2022/04/19 07:39:40;;;;;;;19.13;11.10;;;;;;;12.16;51.46;101390.53;5048223;28;20039;-68
2022/04/19 07:42:05;;;;;;;17.98;10.57;;;;;;;12.33;54.04;101394.81;5060398;28;20434;-73
2022/04/19 07:44:32;;;;;;;17.98;10.68;;;;;;;12.56;51.54;101395.88;5044463;28;20492;-71
2022/04/19 07:46:57;;;;;;;15.60;10.15;;;;;;;12.84;50.26;101389.28;5068309;28;20551;-68
2022/04/19 07:49:23;;;;;;;18.42;11.00;;;;;;;12.98;50.16;101395.47;5068293;28;20035;-73
2022/04/19 07:51:49;;;;;;;19.17;10.27;;;;;;;13.14;48.23;101395.19;5060486;28;20036;-69
2022/04/19 07:54:15;;;;;;;22.88;10.98;;;;;;;13.28;50.93;101397.81;5067891;28;20049;-68
2022/04/19 07:56:41;;;;;;;21.23;10.75;;;;;;;13.42;48.06;101396.78;5072000;28;20033;-68
2022/04/19 07:59:06;;;;;;;22.02;10.82;;;;;;;13.49;50.40;101394.47;5057765;28;20043;-71
2022/04/19 08:01:33;;;;;;;18.80;10.55;;;;;;;13.63;49.06;101394.28;5062762;28;20391;-67
2022/04/19 08:03:58;;;;;;;18.05;10.95;;;;;;;13.67;47.96;101392.19;5068140;28;20093;-67
2022/04/19 08:06:24;;;;;;;20.67;11.40;;;;;;;13.81;46.63;101392.00;5051005;28;20035;-69
2022/04/19 08:08:49;;;;;;;19.40;10.48;;;;;;;13.98;49.42;101383.31;5083149;28;20036;-72
2022/04/19 08:11:15;;;;;;;18.63;11.25;;;;;;;14.22;47.33;101388.75;5063291;28;20111;-75
2022/04/19 08:13:41;;;;;;;18.95;10.18;;;;;;;14.52;45.67;101390.94;5057083;28;20069;-67
2022/04/19 08:16:08;;;;;;;18.88;10.30;;;;;;;14.88;46.29;101393.56;5064363;28;20041;-69
2022/04/19 08:18:33;;;;;;;16.20;9.38;;;;;;;15.32;47.82;101396.22;5066228;28;20114;-69
2022/04/19 08:20:58;;;;;;;18.08;10.25;;;;;;;15.53;43.28;101389.94;5067987;28;20064;-72
2022/04/19 08:23:24;;;;;;;17.83;9.57;;;;;;;15.51;42.88;101381.84;5051282;28;20044;-66
2022/04/19 08:25:57;;;;;;;17.60;10.88;;;;;;;15.68;45.11;101385.06;5067203;28;20380;-68
2022/04/19 08:28:23;;;;;;;16.58;9.95;;;;;;;16.16;45.42;101381.81;5060284;28;20040;-68
2022/04/19 08:30:49;;;;;;;16.65;8.88;;;;;;;16.36;40.95;101372.69;5060152;28;20033;-73
2022/04/19 08:33:20;;;;;;;19.97;9.73;;;;;;;16.38;39.56;101376.19;5052127;28;20009;-69
2022/04/19 08:35:48;;;;;;;12.07;8.15;;;;;;;16.47;42.67;101371.75;5063480;28;20401;-73
2022/04/19 08:38:14;;;;;;;13.15;7.90;;;;;;;16.54;41.61;101381.16;5049476;28;20308;-67
2022/04/19 08:40:39;;;;;;;12.75;7.25;;;;;;;16.61;40.14;101381.50;5062778;28;20129;-71
2022/04/19 08:43:05;;;;;;;11.82;6.60;;;;;;;16.84;39.33;101372.09;5062350;28;20033;-66
2022/04/19 08:45:31;;;;;;;15.35;7.72;;;;;;;16.77;38.42;101374.50;5059283;28;20040;-69
2022/04/19 08:47:58;;;;;;;12.60;7.75;;;;;;;16.85;40.58;101383.97;5069183;28;20123;-74
2022/04/19 08:50:24;;;;;;;11.38;6.32;;;;;;;16.75;38.12;101373.78;5065709;28;20036;-66
2022/04/19 08:57:29;;;;;;;11.70;6.95;;;;;;;16.82;38.09;101380.47;5061635;28;20116;-69
2022/04/19 08:58:19;;;;;;;11.95;6.45;;;;;;;17.44;36.57;101375.72;5058984;28;20037;-74
2022/04/19 09:00:44;;;;;;;14.40;7.00;;;;;;;17.17;35.70;101379.16;5056625;28;20384;-74
2022/04/19 09:03:10;;;;;;;13.10;6.45;;;;;;;16.96;39.09;101381.97;5067890;28;20062;-68
2022/04/19 09:05:49;;;;;;;12.80;7.22;;;;;;;17.28;39.63;101373.50;5063879;28;20052;-69
2022/04/19 09:08:14;;;;;;;12.13;6.28;;;;;;;17.74;37.22;101363.75;5068943;28;20040;-69
2022/04/19 09:10:40;;;;;;;12.40;6.57;;;;;;;17.93;35.95;101373.00;5066249;28;20044;-68
2022/04/19 09:13:07;;;;;;;15.00;6.47;;;;;;;17.85;38.67;101362.72;5067262;28;20033;-68
2022/04/19 09:15:37;;;;;;;12.85;6.57;;;;;;;17.85;35.51;101362.72;5062349;28;20045;-74
2022/04/19 09:18:04;;;;;;;12.77;6.25;;;;;;;17.90;34.37;101365.91;5069405;28;20068;-68
2022/04/19 09:20:31;;;;;;;9.73;5.18;;;;;;;17.95;37.89;101359.97;5063897;28;20032;-74
2022/04/19 09:23:03;;;;;;;7.65;4.88;;;;;;;17.96;35.74;101357.09;5072451;28;20483;-76
2022/04/19 09:25:29;;;;;;;9.83;4.37;;;;;;;17.89;33.84;101360.56;5067972;28;20087;-74
2022/04/19 09:27:57;;;;;;;8.40;4.63;;;;;;;17.62;35.11;101356.59;5068042;28;20044;-67
2022/04/19 09:30:34;;;;;;;10.38;4.68;;;;;;;17.85;37.52;101351.72;5052254;28;20033;-72
2022/04/19 09:33:14;;;;;;;8.77;4.65;;;;;;;18.18;37.33;101346.75;5071612;28;20040;-72
2022/04/19 09:35:45;;;;;;;8.35;4.85;;;;;;;18.00;35.06;101358.53;5071941;28;20050;-69
2022/04/19 09:38:12;;;;;;;6.22;4.35;;;;;;;18.07;36.62;101347.78;5072140;28;20078;-75
2022/04/19 09:40:38;;;;;;;8.68;4.50;;;;;;;18.03;34.46;101346.34;5060676;28;20031;-75
2022/04/19 09:43:30;;;;;;;6.82;3.90;;;;;;;18.07;37.11;101350.53;5065426;28;20104;-74
2022/04/19 09:46:05;;;;;;;7.05;3.92;;;;;;;18.10;36.79;101353.00;5061325;28;20487;-67
2022/04/19 09:48:33;;;;;;;10.88;4.55;;;;;;;18.25;36.21;101343.25;5052985;28;20036;-76
2022/04/19 09:51:03;;;;;;;6.93;4.50;;;;;;;18.42;34.03;101344.38;5070390;28;20032;-68
2022/04/19 09:53:46;;;;;;;7.82;4.20;;;;;;;18.64;36.29;101345.00;5071655;28;20032;-68
2022/04/19 09:56:13;;;;;;;8.05;4.18;;;;;;;18.50;35.01;101349.13;5063163;28;20044;-67
2022/04/19 09:58:39;;;;;;;13.48;4.03;;;;;;;18.42;33.42;101347.13;5068882;28;20498;-68
2022/04/19 10:01:05;;;;;;;7.85;3.92;;;;;;;18.32;32.85;101344.38;5065606;28;20040;-75
2022/04/19 10:09:02;;;;;;;7.25;4.07;;;;;;;18.54;33.50;101347.78;5065454;28;20112;-73
2022/04/19 10:11:28;;;;;;;6.75;4.18;;;;;;;18.96;36.91;101334.44;5053820;28;20129;-75
2022/04/19 10:13:55;;;;;;;12.27;4.68;;;;;;;19.40;33.73;101329.09;5054834;28;20476;-67
2022/04/19 10:16:21;;;;;;;7.90;4.32;;;;;;;19.64;33.59;101333.13;5064727;28;20055;-68
2022/04/19 10:18:46;;;;;;;7.55;3.90;;;;;;;19.47;32.84;101337.59;5071549;28;20032;-75
2022/04/19 10:21:23;;;;;;;7.20;4.38;;;;;;;19.27;32.05;101337.72;5069850;28;20083;-67
2022/04/19 10:23:48;;;;;;;8.77;4.70;;;;;;;19.49;34.24;101336.41;5057860;28;20033;-68
2022/04/19 10:26:18;;;;;;;11.80;4.78;;;;;;;19.62;33.05;101344.31;5060827;28;20120;-67
2022/04/19 10:28:45;;;;;;;9.05;4.68;;;;;;;19.63;32.42;101335.00;5060268;28;20119;-75
2022/04/19 10:31:11;;;;;;;7.82;5.10;;;;;;;19.61;32.15;101337.94;5075372;28;20036;-72
2022/04/19 10:33:47;;;;;;;11.38;4.93;;;;;;;19.68;32.17;101329.00;5070980;28;20467;-71
2022/04/19 10:36:17;;;;;;;10.02;5.45;;;;;;;19.94;33.64;101343.75;5070971;28;20032;-73
2022/04/19 10:38:44;;;;;;;8.75;5.30;;;;;;;20.30;32.99;101338.16;5070906;28;20036;-74
2022/04/19 10:41:09;;;;;;;7.70;5.40;;;;;;;20.60;32.71;101326.59;5056294;28;20064;-73
2022/04/19 10:43:35;;;;;;;9.13;5.05;;;;;;;20.65;29.67;101334.41;5067857;28;20079;-72
2022/04/19 10:46:27;;;;;;;11.35;5.65;;;;;;;20.44;31.73;101337.56;5062772;28;20039;-75
2022/04/19 10:49:22;;;;;;;10.30;5.20;;;;;;;20.15;31.77;101326.81;5067940;28;20495;-74
2022/04/19 10:51:52;;;;;;;9.45;5.32;;;;;;;20.00;30.99;101329.28;5068528;28;20472;-66
2022/04/19 10:54:57;;;;;;;13.18;5.10;;;;;;;19.86;33.18;101328.00;5070553;28;20101;-68
2022/04/19 11:00:21;;;;;;;9.90;4.88;;;;;;;20.27;32.25;101311.69;5055633;28;20116;-66
2022/04/19 11:03:00;;;;;;;8.48;4.45;;;;;;;20.64;32.67;101311.41;5070440;28;20098;-67
2022/04/19 11:05:43;;;;;;;10.25;4.90;;;;;;;20.70;31.43;101297.97;5063787;28;20040;-74
2022/04/19 11:08:24;;;;;;;10.20;5.15;;;;;;;20.70;32.31;101309.03;5070488;28;20113;-72
2022/04/19 11:10:50;;;;;;;7.85;4.10;;;;;;;20.77;32.25;101299.03;5061506;28;20051;-74
2022/04/19 11:13:15;;;;;;;10.40;4.72;;;;;;;21.25;33.74;101295.53;5063846;28;20025;-74
2022/04/19 11:15:42;;;;;;;8.60;4.93;;;;;;;21.31;30.36;101294.91;5058683;28;20044;-68
2022/04/19 11:18:27;;;;;;;7.90;4.35;;;;;;;21.36;30.09;101299.94;5065275;28;20067;-66
2022/04/19 11:20:54;;;;;;;6.53;4.07;;;;;;;21.17;31.99;101294.66;5069986;28;20036;-72
2022/04/19 11:23:22;;;;;;;10.40;4.75;;;;;;;21.20;32.64;101291.56;5067852;28;20044;-66
2022/04/19 11:25:48;;;;;;;8.30;4.60;;;;;;;20.81;29.55;101289.38;5053012;28;20495;-67
2022/04/19 11:28:19;;;;;;;10.27;5.13;;;;;;;20.59;30.29;101291.69;5060774;28;20130;-69
2022/04/19 11:30:57;;;;;;;10.05;4.80;;;;;;;20.87;30.86;101286.81;5059275;28;20032;-73
2022/04/19 11:33:28;;;;;;;8.15;5.35;;;;;;;21.37;32.08;101285.94;5069908;28;20037;-66
2022/04/19 11:36:14;;;;;;;9.18;4.90;;;;;;;21.96;31.69;101271.03;5068276;28;20079;-66
2022/04/19 11:38:45;;;;;;;10.82;5.50;;;;;;;21.67;28.73;101289.06;5057648;28;20040;-68
2022/04/19 11:46:44;;;;;;;9.02;4.50;;;;;;;21.35;30.19;101276.03;5067310;28;20437;-67
2022/04/19 11:49:16;;;;;;;9.77;5.13;;;;;;;21.69;29.93;101277.81;5069805;28;20055;-67
2022/04/19 11:51:54;;;;;;;8.80;5.60;;;;;;;21.73;29.47;101281.94;5062313;28;20056;-74
2022/04/19 11:54:20;;;;;;;10.43;6.03;;;;;;;21.89;29.07;101279.19;5068322;28;20049;-73
2022/04/19 11:56:53;;;;;;;79.00;9.18;;;;;;;21.96;30.25;101274.66;5060603;28;20476;-67
2022/04/19 11:59:24;;;;;;;11.25;5.38;;;;;;;22.27;32.52;101288.69;5059815;28;20039;-72
2022/04/19 12:01:49;;;;;;;9.98;4.80;;;;;;;22.03;27.40;101295.09;5068341;28;20090;-66
2022/04/19 12:04:15;;;;;;;12.60;5.18;;;;;;;21.55;28.32;101288.56;5067052;28;20404;-65